sensor_id;sensor_type;location;lat;lon;timestamp;temperature;humidity
80216;DHT22;69532;37.974;23.708;2024-03-08T00:00:11;9.90;69.70
80216;DHT22;69532;37.974;23.708;2024-03-08T00:02:41;9.80;69.70
80216;DHT22;69532;37.974;23.708;2024-03-08T00:05:08;9.80;69.70
80216;DHT22;69532;37.974;23.708;2024-03-08T00:07:35;9.70;69.90
80216;DHT22;69532;37.974;23.708;2024-03-08T00:10:03;9.70;69.60
80216;DHT22;69532;37.974;23.708;2024-03-08T00:12:29;9.90;69.30
80216;DHT22;69532;37.974;23.708;2024-03-08T00:14:56;9.90;69.10
80216;DHT22;69532;37.974;23.708;2024-03-08T00:17:22;9.80;69.30
80216;DHT22;69532;37.974;23.708;2024-03-08T00:19:49;9.90;69.40
80216;DHT22;69532;37.974;23.708;2024-03-08T00:22:16;9.80;69.40
80216;DHT22;69532;37.974;23.708;2024-03-08T00:24:43;10.00;68.80
80216;DHT22;69532;37.974;23.708;2024-03-08T00:27:09;9.90;69.10
80216;DHT22;69532;37.974;23.708;2024-03-08T00:29:37;9.90;69.10
80216;DHT22;69532;37.974;23.708;2024-03-08T00:32:06;10.00;69.00
80216;DHT22;69532;37.974;23.708;2024-03-08T00:34:37;10.00;69.00
80216;DHT22;69532;37.974;23.708;2024-03-08T00:37:03;10.00;69.20
80216;DHT22;69532;37.974;23.708;2024-03-08T00:39:30;9.90;69.20
80216;DHT22;69532;37.974;23.708;2024-03-08T00:41:56;9.90;69.00
80216;DHT22;69532;37.974;23.708;2024-03-08T00:44:22;9.70;69.20
80216;DHT22;69532;37.974;23.708;2024-03-08T00:46:48;9.80;69.00
80216;DHT22;69532;37.974;23.708;2024-03-08T00:49:15;9.70;69.10
80216;DHT22;69532;37.974;23.708;2024-03-08T00:51:41;9.80;68.90
80216;DHT22;69532;37.974;23.708;2024-03-08T00:54:07;9.70;69.30
80216;DHT22;69532;37.974;23.708;2024-03-08T00:56:33;9.80;69.20
80216;DHT22;69532;37.974;23.708;2024-03-08T00:59:00;9.80;68.80
80216;DHT22;69532;37.974;23.708;2024-03-08T01:01:26;9.80;69.90
80216;DHT22;69532;37.974;23.708;2024-03-08T01:03:52;9.80;68.90
80216;DHT22;69532;37.974;23.708;2024-03-08T01:06:18;9.70;69.30
80216;DHT22;69532;37.974;23.708;2024-03-08T01:08:44;9.80;69.40
80216;DHT22;69532;37.974;23.708;2024-03-08T01:11:13;9.70;69.30
80216;DHT22;69532;37.974;23.708;2024-03-08T01:13:40;9.70;69.60
80216;DHT22;69532;37.974;23.708;2024-03-08T01:16:06;9.70;69.30
80216;DHT22;69532;37.974;23.708;2024-03-08T01:18:32;9.70;69.50
80216;DHT22;69532;37.974;23.708;2024-03-08T01:20:58;9.70;69.70
80216;DHT22;69532;37.974;23.708;2024-03-08T01:23:24;9.80;69.50
80216;DHT22;69532;37.974;23.708;2024-03-08T01:25:51;9.70;69.40
80216;DHT22;69532;37.974;23.708;2024-03-08T01:28:25;9.70;69.70
80216;DHT22;69532;37.974;23.708;2024-03-08T01:30:52;9.70;69.80
80216;DHT22;69532;37.974;23.708;2024-03-08T01:33:25;9.70;69.70
80216;DHT22;69532;37.974;23.708;2024-03-08T01:35:53;9.70;69.80
80216;DHT22;69532;37.974;23.708;2024-03-08T01:38:19;9.70;70.10
80216;DHT22;69532;37.974;23.708;2024-03-08T01:40:48;9.80;69.60
80216;DHT22;69532;37.974;23.708;2024-03-08T01:43:20;9.90;69.50
80216;DHT22;69532;37.974;23.708;2024-03-08T01:45:48;9.90;69.50
80216;DHT22;69532;37.974;23.708;2024-03-08T01:48:15;9.80;69.60
80216;DHT22;69532;37.974;23.708;2024-03-08T01:50:41;9.80;70.00
80216;DHT22;69532;37.974;23.708;2024-03-08T01:53:08;9.90;69.70
80216;DHT22;69532;37.974;23.708;2024-03-08T01:55:36;9.90;68.90
80216;DHT22;69532;37.974;23.708;2024-03-08T01:58:04;10.00;68.20
80216;DHT22;69532;37.974;23.708;2024-03-08T02:00:32;9.90;68.40
80216;DHT22;69532;37.974;23.708;2024-03-08T02:02:59;9.80;68.60
80216;DHT22;69532;37.974;23.708;2024-03-08T02:05:25;9.70;69.30
80216;DHT22;69532;37.974;23.708;2024-03-08T02:07:52;9.70;69.30
80216;DHT22;69532;37.974;23.708;2024-03-08T02:10:18;9.90;69.10
80216;DHT22;69532;37.974;23.708;2024-03-08T02:12:45;9.90;68.80
80216;DHT22;69532;37.974;23.708;2024-03-08T02:15:12;9.80;68.60
80216;DHT22;69532;37.974;23.708;2024-03-08T02:17:38;9.80;68.80
80216;DHT22;69532;37.974;23.708;2024-03-08T02:20:05;9.80;68.60
80216;DHT22;69532;37.974;23.708;2024-03-08T02:22:31;9.80;68.90
80216;DHT22;69532;37.974;23.708;2024-03-08T02:24:58;9.80;69.00
80216;DHT22;69532;37.974;23.708;2024-03-08T02:27:27;9.80;69.30
80216;DHT22;69532;37.974;23.708;2024-03-08T02:29:55;9.80;68.90
80216;DHT22;69532;37.974;23.708;2024-03-08T02:32:22;9.80;68.90
80216;DHT22;69532;37.974;23.708;2024-03-08T02:34:49;9.70;69.30
80216;DHT22;69532;37.974;23.708;2024-03-08T02:37:18;9.60;69.70
80216;DHT22;69532;37.974;23.708;2024-03-08T02:39:44;9.70;69.50
80216;DHT22;69532;37.974;23.708;2024-03-08T02:42:11;9.70;69.60
80216;DHT22;69532;37.974;23.708;2024-03-08T02:44:37;9.70;69.20
80216;DHT22;69532;37.974;23.708;2024-03-08T02:47:03;9.70;69.40
80216;DHT22;69532;37.974;23.708;2024-03-08T02:49:29;9.60;69.80
80216;DHT22;69532;37.974;23.708;2024-03-08T02:51:56;9.70;69.30
80216;DHT22;69532;37.974;23.708;2024-03-08T02:54:23;9.70;69.50
80216;DHT22;69532;37.974;23.708;2024-03-08T02:56:49;9.50;69.80
80216;DHT22;69532;37.974;23.708;2024-03-08T02:59:18;9.50;70.00
80216;DHT22;69532;37.974;23.708;2024-03-08T03:01:44;9.30;70.80
80216;DHT22;69532;37.974;23.708;2024-03-08T03:04:10;9.30;71.10
80216;DHT22;69532;37.974;23.708;2024-03-08T03:06:37;9.30;71.20
80216;DHT22;69532;37.974;23.708;2024-03-08T03:09:03;9.30;71.50
80216;DHT22;69532;37.974;23.708;2024-03-08T03:11:32;9.30;71.90
80216;DHT22;69532;37.974;23.708;2024-03-08T03:13:58;9.30;71.80
80216;DHT22;69532;37.974;23.708;2024-03-08T03:16:24;9.40;71.20
80216;DHT22;69532;37.974;23.708;2024-03-08T03:18:50;9.50;71.20
80216;DHT22;69532;37.974;23.708;2024-03-08T03:21:16;9.40;71.50
80216;DHT22;69532;37.974;23.708;2024-03-08T03:23:43;9.50;71.40
80216;DHT22;69532;37.974;23.708;2024-03-08T03:26:09;9.50;71.80
80216;DHT22;69532;37.974;23.708;2024-03-08T03:28:39;9.50;72.20
80216;DHT22;69532;37.974;23.708;2024-03-08T03:31:08;9.50;72.10
80216;DHT22;69532;37.974;23.708;2024-03-08T03:33:40;9.40;72.70
80216;DHT22;69532;37.974;23.708;2024-03-08T03:36:06;9.40;73.40
80216;DHT22;69532;37.974;23.708;2024-03-08T03:38:34;9.30;73.40
80216;DHT22;69532;37.974;23.708;2024-03-08T03:41:00;9.30;73.60
80216;DHT22;69532;37.974;23.708;2024-03-08T03:43:37;9.20;74.20
80216;DHT22;69532;37.974;23.708;2024-03-08T03:46:07;9.20;74.40
80216;DHT22;69532;37.974;23.708;2024-03-08T03:48:33;9.10;74.60
80216;DHT22;69532;37.974;23.708;2024-03-08T03:50:59;9.10;74.80
80216;DHT22;69532;37.974;23.708;2024-03-08T03:53:25;9.10;74.40
80216;DHT22;69532;37.974;23.708;2024-03-08T03:55:51;9.10;74.80
80216;DHT22;69532;37.974;23.708;2024-03-08T03:58:17;9.00;74.80
80216;DHT22;69532;37.974;23.708;2024-03-08T04:00:48;9.10;75.10
80216;DHT22;69532;37.974;23.708;2024-03-08T04:03:15;9.10;74.60
80216;DHT22;69532;37.974;23.708;2024-03-08T04:05:42;9.10;75.80
80216;DHT22;69532;37.974;23.708;2024-03-08T04:08:08;9.10;74.50
80216;DHT22;69532;37.974;23.708;2024-03-08T04:10:34;9.10;75.00
80216;DHT22;69532;37.974;23.708;2024-03-08T04:13:01;9.00;75.40
80216;DHT22;69532;37.974;23.708;2024-03-08T04:15:27;8.90;75.30
80216;DHT22;69532;37.974;23.708;2024-03-08T04:17:53;8.90;75.60
80216;DHT22;69532;37.974;23.708;2024-03-08T04:20:19;9.00;75.80
80216;DHT22;69532;37.974;23.708;2024-03-08T04:22:47;9.00;75.30
80216;DHT22;69532;37.974;23.708;2024-03-08T04:25:15;9.00;74.70
80216;DHT22;69532;37.974;23.708;2024-03-08T04:27:41;9.00;75.20
80216;DHT22;69532;37.974;23.708;2024-03-08T04:30:08;9.00;75.10
80216;DHT22;69532;37.974;23.708;2024-03-08T04:32:34;9.00;74.30
80216;DHT22;69532;37.974;23.708;2024-03-08T04:35:01;8.90;74.50
80216;DHT22;69532;37.974;23.708;2024-03-08T04:37:27;9.00;74.10
80216;DHT22;69532;37.974;23.708;2024-03-08T04:39:55;8.90;74.20
80216;DHT22;69532;37.974;23.708;2024-03-08T04:42:22;8.90;74.20
80216;DHT22;69532;37.974;23.708;2024-03-08T04:44:48;8.80;74.30
80216;DHT22;69532;37.974;23.708;2024-03-08T04:47:14;8.90;74.40
80216;DHT22;69532;37.974;23.708;2024-03-08T04:49:42;8.90;73.60
80216;DHT22;69532;37.974;23.708;2024-03-08T04:52:08;8.90;73.30
80216;DHT22;69532;37.974;23.708;2024-03-08T04:54:34;8.70;73.80
80216;DHT22;69532;37.974;23.708;2024-03-08T04:57:00;8.80;73.70
80216;DHT22;69532;37.974;23.708;2024-03-08T04:59:27;8.80;73.50
80216;DHT22;69532;37.974;23.708;2024-03-08T05:01:53;8.80;73.50
80216;DHT22;69532;37.974;23.708;2024-03-08T05:04:19;8.80;73.70
80216;DHT22;69532;37.974;23.708;2024-03-08T05:06:45;8.90;73.30
80216;DHT22;69532;37.974;23.708;2024-03-08T05:09:12;8.90;72.90
80216;DHT22;69532;37.974;23.708;2024-03-08T05:11:42;8.90;73.20
80216;DHT22;69532;37.974;23.708;2024-03-08T05:14:13;9.00;72.30
80216;DHT22;69532;37.974;23.708;2024-03-08T05:16:43;9.10;71.90
80216;DHT22;69532;37.974;23.708;2024-03-08T05:19:18;9.00;72.50
80216;DHT22;69532;37.974;23.708;2024-03-08T05:21:47;8.90;72.90
80216;DHT22;69532;37.974;23.708;2024-03-08T05:24:14;8.80;73.40
80216;DHT22;69532;37.974;23.708;2024-03-08T05:26:41;8.90;73.00
80216;DHT22;69532;37.974;23.708;2024-03-08T05:29:08;8.80;73.20
80216;DHT22;69532;37.974;23.708;2024-03-08T05:31:50;8.90;72.90
80216;DHT22;69532;37.974;23.708;2024-03-08T05:34:16;8.90;73.20
80216;DHT22;69532;37.974;23.708;2024-03-08T05:36:42;8.80;73.70
80216;DHT22;69532;37.974;23.708;2024-03-08T05:39:27;8.80;73.30
80216;DHT22;69532;37.974;23.708;2024-03-08T05:41:53;8.90;72.60
80216;DHT22;69532;37.974;23.708;2024-03-08T05:44:21;9.00;72.00
80216;DHT22;69532;37.974;23.708;2024-03-08T05:46:47;8.90;71.90
80216;DHT22;69532;37.974;23.708;2024-03-08T05:49:13;9.00;71.80
80216;DHT22;69532;37.974;23.708;2024-03-08T05:51:40;9.00;72.00
80216;DHT22;69532;37.974;23.708;2024-03-08T05:54:12;9.00;72.40
80216;DHT22;69532;37.974;23.708;2024-03-08T05:56:39;9.10;72.60
80216;DHT22;69532;37.974;23.708;2024-03-08T05:59:10;9.10;72.90
80216;DHT22;69532;37.974;23.708;2024-03-08T06:01:36;9.10;72.30
80216;DHT22;69532;37.974;23.708;2024-03-08T06:04:04;9.10;72.40
80216;DHT22;69532;37.974;23.708;2024-03-08T06:06:30;9.20;72.50
80216;DHT22;69532;37.974;23.708;2024-03-08T06:08:56;9.30;72.00
80216;DHT22;69532;37.974;23.708;2024-03-08T06:11:22;9.30;72.00
80216;DHT22;69532;37.974;23.708;2024-03-08T06:13:49;9.40;71.20
80216;DHT22;69532;37.974;23.708;2024-03-08T06:16:16;9.50;71.50
80216;DHT22;69532;37.974;23.708;2024-03-08T06:18:42;9.60;70.80
80216;DHT22;69532;37.974;23.708;2024-03-08T06:21:08;9.50;70.60
80216;DHT22;69532;37.974;23.708;2024-03-08T06:23:35;9.60;71.00
80216;DHT22;69532;37.974;23.708;2024-03-08T06:26:07;9.60;69.80
80216;DHT22;69532;37.974;23.708;2024-03-08T06:28:34;9.80;69.10
80216;DHT22;69532;37.974;23.708;2024-03-08T06:31:03;9.90;68.50
80216;DHT22;69532;37.974;23.708;2024-03-08T06:33:30;10.00;68.50
80216;DHT22;69532;37.974;23.708;2024-03-08T06:35:58;9.90;68.60
80216;DHT22;69532;37.974;23.708;2024-03-08T06:38:24;9.90;68.80
80216;DHT22;69532;37.974;23.708;2024-03-08T06:40:51;10.10;68.80
80216;DHT22;69532;37.974;23.708;2024-03-08T06:43:18;10.10;68.50
80216;DHT22;69532;37.974;23.708;2024-03-08T06:45:47;10.10;68.50
80216;DHT22;69532;37.974;23.708;2024-03-08T06:48:19;10.20;68.20
80216;DHT22;69532;37.974;23.708;2024-03-08T06:50:47;10.20;68.20
80216;DHT22;69532;37.974;23.708;2024-03-08T06:53:13;10.30;67.80
80216;DHT22;69532;37.974;23.708;2024-03-08T06:55:40;10.30;68.30
80216;DHT22;69532;37.974;23.708;2024-03-08T06:58:06;10.40;67.80
80216;DHT22;69532;37.974;23.708;2024-03-08T07:00:33;10.60;67.10
80216;DHT22;69532;37.974;23.708;2024-03-08T07:02:59;10.70;66.50
80216;DHT22;69532;37.974;23.708;2024-03-08T07:05:29;10.70;66.30
80216;DHT22;69532;37.974;23.708;2024-03-08T07:07:56;10.70;66.30
80216;DHT22;69532;37.974;23.708;2024-03-08T07:10:22;10.70;66.10
80216;DHT22;69532;37.974;23.708;2024-03-08T07:12:52;10.70;66.80
80216;DHT22;69532;37.974;23.708;2024-03-08T07:15:19;10.80;65.70
80216;DHT22;69532;37.974;23.708;2024-03-08T07:17:46;10.80;65.40
80216;DHT22;69532;37.974;23.708;2024-03-08T07:20:13;10.80;66.10
80216;DHT22;69532;37.974;23.708;2024-03-08T07:22:40;10.80;66.00
80216;DHT22;69532;37.974;23.708;2024-03-08T07:25:06;10.70;66.40
80216;DHT22;69532;37.974;23.708;2024-03-08T07:27:44;10.70;66.20
80216;DHT22;69532;37.974;23.708;2024-03-08T07:30:11;10.70;67.60
80216;DHT22;69532;37.974;23.708;2024-03-08T07:32:38;10.80;66.10
80216;DHT22;69532;37.974;23.708;2024-03-08T07:35:04;10.70;66.00
80216;DHT22;69532;37.974;23.708;2024-03-08T07:37:30;10.80;65.80
80216;DHT22;69532;37.974;23.708;2024-03-08T07:39:57;10.80;65.70
80216;DHT22;69532;37.974;23.708;2024-03-08T07:42:24;10.90;65.20
80216;DHT22;69532;37.974;23.708;2024-03-08T07:44:50;11.10;63.20
80216;DHT22;69532;37.974;23.708;2024-03-08T07:47:16;11.20;62.30
80216;DHT22;69532;37.974;23.708;2024-03-08T07:49:44;11.20;62.60
80216;DHT22;69532;37.974;23.708;2024-03-08T07:52:10;11.20;63.20
80216;DHT22;69532;37.974;23.708;2024-03-08T07:54:41;11.20;63.30
80216;DHT22;69532;37.974;23.708;2024-03-08T07:57:07;11.40;63.30
80216;DHT22;69532;37.974;23.708;2024-03-08T07:59:33;11.40;62.80
80216;DHT22;69532;37.974;23.708;2024-03-08T08:01:59;11.50;62.80
80216;DHT22;69532;37.974;23.708;2024-03-08T08:04:26;11.60;63.10
80216;DHT22;69532;37.974;23.708;2024-03-08T08:06:53;11.80;61.80
80216;DHT22;69532;37.974;23.708;2024-03-08T08:09:20;11.80;61.50
80216;DHT22;69532;37.974;23.708;2024-03-08T08:11:57;11.80;61.40
80216;DHT22;69532;37.974;23.708;2024-03-08T08:14:23;11.80;61.00
80216;DHT22;69532;37.974;23.708;2024-03-08T08:16:49;11.80;61.50
80216;DHT22;69532;37.974;23.708;2024-03-08T08:19:19;11.80;61.30
80216;DHT22;69532;37.974;23.708;2024-03-08T08:21:45;11.80;61.50
80216;DHT22;69532;37.974;23.708;2024-03-08T08:24:11;11.90;60.50
80216;DHT22;69532;37.974;23.708;2024-03-08T08:26:38;12.00;59.80
80216;DHT22;69532;37.974;23.708;2024-03-08T08:29:04;12.10;59.20
80216;DHT22;69532;37.974;23.708;2024-03-08T08:31:32;12.20;58.80
80216;DHT22;69532;37.974;23.708;2024-03-08T08:33:59;12.30;58.60
80216;DHT22;69532;37.974;23.708;2024-03-08T08:36:25;12.40;59.20
80216;DHT22;69532;37.974;23.708;2024-03-08T08:38:52;12.50;58.80
80216;DHT22;69532;37.974;23.708;2024-03-08T08:41:22;12.60;58.10
80216;DHT22;69532;37.974;23.708;2024-03-08T08:43:48;12.70;57.30
80216;DHT22;69532;37.974;23.708;2024-03-08T08:46:18;12.90;57.30
80216;DHT22;69532;37.974;23.708;2024-03-08T08:48:44;12.90;57.60
80216;DHT22;69532;37.974;23.708;2024-03-08T08:51:11;12.90;57.10
80216;DHT22;69532;37.974;23.708;2024-03-08T08:53:42;13.10;56.40
80216;DHT22;69532;37.974;23.708;2024-03-08T08:56:13;13.30;55.60
80216;DHT22;69532;37.974;23.708;2024-03-08T08:58:40;13.40;54.90
80216;DHT22;69532;37.974;23.708;2024-03-08T09:01:09;13.40;54.90
80216;DHT22;69532;37.974;23.708;2024-03-08T09:03:38;13.30;54.50
80216;DHT22;69532;37.974;23.708;2024-03-08T09:06:07;13.30;56.00
80216;DHT22;69532;37.974;23.708;2024-03-08T09:08:36;13.30;55.10
80216;DHT22;69532;37.974;23.708;2024-03-08T09:11:03;13.30;55.50
80216;DHT22;69532;37.974;23.708;2024-03-08T09:13:30;13.40;54.60
80216;DHT22;69532;37.974;23.708;2024-03-08T09:15:56;13.50;53.50
80216;DHT22;69532;37.974;23.708;2024-03-08T09:18:22;13.70;52.80
80216;DHT22;69532;37.974;23.708;2024-03-08T09:20:50;13.80;53.10
80216;DHT22;69532;37.974;23.708;2024-03-08T09:23:19;14.00;54.10
80216;DHT22;69532;37.974;23.708;2024-03-08T09:25:46;14.20;52.20
80216;DHT22;69532;37.974;23.708;2024-03-08T09:28:12;14.40;50.90
80216;DHT22;69532;37.974;23.708;2024-03-08T09:30:39;14.50;50.60
80216;DHT22;69532;37.974;23.708;2024-03-08T09:33:06;14.70;50.80
80216;DHT22;69532;37.974;23.708;2024-03-08T09:35:32;14.70;49.90
80216;DHT22;69532;37.974;23.708;2024-03-08T09:37:59;14.80;50.40
80216;DHT22;69532;37.974;23.708;2024-03-08T09:40:25;14.70;49.60
80216;DHT22;69532;37.974;23.708;2024-03-08T09:42:52;14.60;50.20
80216;DHT22;69532;37.974;23.708;2024-03-08T09:45:20;14.40;50.60
80216;DHT22;69532;37.974;23.708;2024-03-08T09:47:48;14.30;51.40
80216;DHT22;69532;37.974;23.708;2024-03-08T09:50:17;14.10;51.00
80216;DHT22;69532;37.974;23.708;2024-03-08T09:52:47;14.00;51.80
80216;DHT22;69532;37.974;23.708;2024-03-08T09:55:14;14.00;52.10
80216;DHT22;69532;37.974;23.708;2024-03-08T09:57:43;13.90;52.40
80216;DHT22;69532;37.974;23.708;2024-03-08T10:00:29;13.90;51.70
80216;DHT22;69532;37.974;23.708;2024-03-08T10:03:01;13.80;52.20
80216;DHT22;69532;37.974;23.708;2024-03-08T10:05:27;13.80;52.90
80216;DHT22;69532;37.974;23.708;2024-03-08T10:07:53;13.90;52.50
80216;DHT22;69532;37.974;23.708;2024-03-08T10:10:19;13.90;53.50
80216;DHT22;69532;37.974;23.708;2024-03-08T10:12:46;13.90;52.40
80216;DHT22;69532;37.974;23.708;2024-03-08T10:15:12;14.00;52.40
80216;DHT22;69532;37.974;23.708;2024-03-08T10:17:38;14.00;51.90
80216;DHT22;69532;37.974;23.708;2024-03-08T10:20:16;14.00;51.60
80216;DHT22;69532;37.974;23.708;2024-03-08T10:22:43;14.10;51.80
80216;DHT22;69532;37.974;23.708;2024-03-08T10:25:11;14.30;52.20
80216;DHT22;69532;37.974;23.708;2024-03-08T10:27:40;14.50;51.20
80216;DHT22;69532;37.974;23.708;2024-03-08T10:30:16;14.60;50.10
80216;DHT22;69532;37.974;23.708;2024-03-08T10:32:47;14.50;49.00
80216;DHT22;69532;37.974;23.708;2024-03-08T10:35:14;14.60;49.40
80216;DHT22;69532;37.974;23.708;2024-03-08T10:37:49;14.60;49.80
80216;DHT22;69532;37.974;23.708;2024-03-08T10:40:25;14.60;49.70
80216;DHT22;69532;37.974;23.708;2024-03-08T10:42:58;14.70;49.30
80216;DHT22;69532;37.974;23.708;2024-03-08T10:45:32;14.60;49.40
80216;DHT22;69532;37.974;23.708;2024-03-08T10:48:28;14.60;49.80
80216;DHT22;69532;37.974;23.708;2024-03-08T10:51:07;14.70;49.80
80216;DHT22;69532;37.974;23.708;2024-03-08T10:53:37;15.00;48.60
80216;DHT22;69532;37.974;23.708;2024-03-08T10:56:07;15.40;47.70
80216;DHT22;69532;37.974;23.708;2024-03-08T10:58:36;15.70;47.30
80216;DHT22;69532;37.974;23.708;2024-03-08T11:01:03;16.00;47.10
80216;DHT22;69532;37.974;23.708;2024-03-08T11:06:41;16.30;46.10
80216;DHT22;69532;37.974;23.708;2024-03-08T11:09:30;16.60;44.90
80216;DHT22;69532;37.974;23.708;2024-03-08T11:14:50;16.80;43.10
80216;DHT22;69532;37.974;23.708;2024-03-08T11:17:21;17.00;42.50
80216;DHT22;69532;37.974;23.708;2024-03-08T11:19:49;17.40;42.10
80216;DHT22;69532;37.974;23.708;2024-03-08T11:22:28;17.70;41.80
80216;DHT22;69532;37.974;23.708;2024-03-08T11:25:09;18.10;40.60
80216;DHT22;69532;37.974;23.708;2024-03-08T11:27:38;18.30;39.80
80216;DHT22;69532;37.974;23.708;2024-03-08T11:30:08;18.10;39.40
80216;DHT22;69532;37.974;23.708;2024-03-08T11:32:38;18.10;40.10
80216;DHT22;69532;37.974;23.708;2024-03-08T11:35:19;18.10;39.30
80216;DHT22;69532;37.974;23.708;2024-03-08T11:37:46;18.10;39.60
80216;DHT22;69532;37.974;23.708;2024-03-08T11:40:17;18.00;39.90
80216;DHT22;69532;37.974;23.708;2024-03-08T11:42:48;18.20;40.90
80216;DHT22;69532;37.974;23.708;2024-03-08T11:45:18;18.80;40.30
80216;DHT22;69532;37.974;23.708;2024-03-08T11:47:47;19.70;38.10
80216;DHT22;69532;37.974;23.708;2024-03-08T11:50:14;20.40;36.40
80216;DHT22;69532;37.974;23.708;2024-03-08T11:52:41;21.00;34.40
80216;DHT22;69532;37.974;23.708;2024-03-08T11:55:08;21.30;33.10
80216;DHT22;69532;37.974;23.708;2024-03-08T11:57:35;21.60;32.60
80216;DHT22;69532;37.974;23.708;2024-03-08T12:00:02;21.80;32.20
80216;DHT22;69532;37.974;23.708;2024-03-08T12:02:34;22.70;30.90
80216;DHT22;69532;37.974;23.708;2024-03-08T12:05:06;23.10;30.30
80216;DHT22;69532;37.974;23.708;2024-03-08T12:07:32;23.10;29.10
80216;DHT22;69532;37.974;23.708;2024-03-08T12:10:21;22.90;29.00
80216;DHT22;69532;37.974;23.708;2024-03-08T12:12:58;22.70;29.40
80216;DHT22;69532;37.974;23.708;2024-03-08T12:15:29;22.40;29.60
80216;DHT22;69532;37.974;23.708;2024-03-08T12:17:55;22.30;29.90
80216;DHT22;69532;37.974;23.708;2024-03-08T12:20:24;22.70;29.70
80216;DHT22;69532;37.974;23.708;2024-03-08T12:22:56;24.80;27.30
80216;DHT22;69532;37.974;23.708;2024-03-08T12:25:26;27.70;24.40
80216;DHT22;69532;37.974;23.708;2024-03-08T12:27:52;28.40;22.80
80216;DHT22;69532;37.974;23.708;2024-03-08T12:30:24;28.20;22.90
80216;DHT22;69532;37.974;23.708;2024-03-08T12:32:53;29.40;21.80
80216;DHT22;69532;37.974;23.708;2024-03-08T12:35:21;31.20;20.60
80216;DHT22;69532;37.974;23.708;2024-03-08T12:37:52;32.10;19.30
80216;DHT22;69532;37.974;23.708;2024-03-08T12:40:24;31.10;19.30
80216;DHT22;69532;37.974;23.708;2024-03-08T12:42:52;29.20;20.70
80216;DHT22;69532;37.974;23.708;2024-03-08T12:45:18;27.20;22.30
80216;DHT22;69532;37.974;23.708;2024-03-08T12:47:45;25.90;23.80
80216;DHT22;69532;37.974;23.708;2024-03-08T12:50:14;24.70;25.20
80216;DHT22;69532;37.974;23.708;2024-03-08T12:52:42;23.30;26.50
80216;DHT22;69532;37.974;23.708;2024-03-08T12:55:08;22.20;28.00
80216;DHT22;69532;37.974;23.708;2024-03-08T12:57:35;22.30;28.70
80216;DHT22;69532;37.974;23.708;2024-03-08T13:00:04;21.90;28.50
80216;DHT22;69532;37.974;23.708;2024-03-08T13:02:30;21.30;29.50
80216;DHT22;69532;37.974;23.708;2024-03-08T13:04:58;20.80;30.50
80216;DHT22;69532;37.974;23.708;2024-03-08T13:07:25;20.40;31.20
80216;DHT22;69532;37.974;23.708;2024-03-08T13:09:54;19.90;31.60
80216;DHT22;69532;37.974;23.708;2024-03-08T13:12:21;19.50;32.40
80216;DHT22;69532;37.974;23.708;2024-03-08T13:14:49;19.30;33.70
80216;DHT22;69532;37.974;23.708;2024-03-08T13:17:15;19.00;34.30
80216;DHT22;69532;37.974;23.708;2024-03-08T13:19:41;18.90;34.50
80216;DHT22;69532;37.974;23.708;2024-03-08T13:22:08;18.80;35.50
80216;DHT22;69532;37.974;23.708;2024-03-08T13:24:42;18.90;35.00
80216;DHT22;69532;37.974;23.708;2024-03-08T13:27:11;19.60;34.10
80216;DHT22;69532;37.974;23.708;2024-03-08T13:29:47;21.20;31.60
80216;DHT22;69532;37.974;23.708;2024-03-08T13:32:16;23.60;27.80
80216;DHT22;69532;37.974;23.708;2024-03-08T13:34:43;24.10;26.20
80216;DHT22;69532;37.974;23.708;2024-03-08T13:37:11;24.40;26.20
80216;DHT22;69532;37.974;23.708;2024-03-08T13:39:37;25.90;24.80
80216;DHT22;69532;37.974;23.708;2024-03-08T13:42:10;27.80;23.00
80216;DHT22;69532;37.974;23.708;2024-03-08T13:44:43;29.70;21.20
80216;DHT22;69532;37.974;23.708;2024-03-08T13:47:09;31.00;19.40
80216;DHT22;69532;37.974;23.708;2024-03-08T13:49:38;30.00;19.50
80216;DHT22;69532;37.974;23.708;2024-03-08T13:52:04;29.40;20.10
80216;DHT22;69532;37.974;23.708;2024-03-08T13:54:30;30.00;20.10
80216;DHT22;69532;37.974;23.708;2024-03-08T13:56:58;31.10;18.90
80216;DHT22;69532;37.974;23.708;2024-03-08T13:59:24;31.00;18.60
80216;DHT22;69532;37.974;23.708;2024-03-08T14:01:50;29.70;19.10
80216;DHT22;69532;37.974;23.708;2024-03-08T14:04:17;28.50;20.20
80216;DHT22;69532;37.974;23.708;2024-03-08T14:06:43;26.90;21.40
80216;DHT22;69532;37.974;23.708;2024-03-08T14:09:11;25.50;22.90
80216;DHT22;69532;37.974;23.708;2024-03-08T14:11:45;23.60;24.80
80216;DHT22;69532;37.974;23.708;2024-03-08T14:14:12;22.60;26.50
80216;DHT22;69532;37.974;23.708;2024-03-08T14:16:41;21.80;28.10
80216;DHT22;69532;37.974;23.708;2024-03-08T14:19:07;21.00;28.70
80216;DHT22;69532;37.974;23.708;2024-03-08T14:21:35;20.50;30.00
80216;DHT22;69532;37.974;23.708;2024-03-08T14:24:05;20.20;30.90
80216;DHT22;69532;37.974;23.708;2024-03-08T14:26:31;19.60;31.90
80216;DHT22;69532;37.974;23.708;2024-03-08T14:28:57;19.30;32.90
80216;DHT22;69532;37.974;23.708;2024-03-08T14:31:23;19.10;33.40
80216;DHT22;69532;37.974;23.708;2024-03-08T14:33:53;18.70;34.70
80216;DHT22;69532;37.974;23.708;2024-03-08T14:36:20;19.00;34.60
80216;DHT22;69532;37.974;23.708;2024-03-08T14:38:47;19.40;33.40
80216;DHT22;69532;37.974;23.708;2024-03-08T14:41:13;20.80;31.60
80216;DHT22;69532;37.974;23.708;2024-03-08T14:43:42;22.60;28.90
80216;DHT22;69532;37.974;23.708;2024-03-08T14:46:13;24.30;26.10
80216;DHT22;69532;37.974;23.708;2024-03-08T14:48:43;26.30;24.30
80216;DHT22;69532;37.974;23.708;2024-03-08T14:51:10;27.10;23.20
80216;DHT22;69532;37.974;23.708;2024-03-08T14:53:43;27.10;23.10
80216;DHT22;69532;37.974;23.708;2024-03-08T14:56:11;25.70;23.90
80216;DHT22;69532;37.974;23.708;2024-03-08T14:58:43;24.50;25.30
80216;DHT22;69532;37.974;23.708;2024-03-08T15:01:12;23.10;26.80
80216;DHT22;69532;37.974;23.708;2024-03-08T15:03:42;21.80;28.90
80216;DHT22;69532;37.974;23.708;2024-03-08T15:06:11;20.50;30.80
80216;DHT22;69532;37.974;23.708;2024-03-08T15:08:38;19.30;33.40
80216;DHT22;69532;37.974;23.708;2024-03-08T15:11:06;18.30;35.90
80216;DHT22;69532;37.974;23.708;2024-03-08T15:13:33;17.80;37.10
80216;DHT22;69532;37.974;23.708;2024-03-08T15:16:10;17.10;38.70
80216;DHT22;69532;37.974;23.708;2024-03-08T15:18:44;16.50;40.40
80216;DHT22;69532;37.974;23.708;2024-03-08T15:21:14;16.30;40.40
80216;DHT22;69532;37.974;23.708;2024-03-08T15:23:48;16.20;41.00
80216;DHT22;69532;37.974;23.708;2024-03-08T15:26:18;16.40;41.20
80216;DHT22;69532;37.974;23.708;2024-03-08T15:28:44;17.30;39.60
80216;DHT22;69532;37.974;23.708;2024-03-08T15:31:17;18.30;37.50
80216;DHT22;69532;37.974;23.708;2024-03-08T15:33:46;18.90;35.50